Date,TemperatureHighF,TemperatureAvgF,TemperatureLowF,DewpointHighF,DewpointAvgF,DewpointLowF,HumidityHigh,HumidityAvg,HumidityLow,PressureMaxIn,PressureMinIn,WindSpeedMaxMPH,WindSpeedAvgMPH,GustSpeedMaxMPH,PrecipitationSumIn
2013-1-27,74.7,71.0,61.0,65.5,62.3,58.4,99,75,58,30.01,29.93,8,4,0,0.01
2013-1-28,76.5,70.5,67.5,67.0,65.0,62.4,94,83,68,30.01,29.91,7,3,0,0.01
2013-1-29,79.2,70.9,61.5,69.3,66.1,61.2,99,85,69,29.92,29.81,16,4,0,0.00
2013-1-30,83.3,73.2,63.5,67.1,64.3,62.7,99,76,53,29.81,29.63,13,4,0,0.00
2013-1-31,69.6,59.3,47.3,66.5,47.6,34.5,96,69,32,29.96,29.65,16,5,0,0.11
2013-2-1,65.8,53.7,43.0,44.1,37.1,30.6,97,56,27,30.07,29.96,11,4,0,0.00
2013-2-2,70.9,55.8,43.2,51.0,45.9,40.8,97,73,43,30.02,29.87,7,2,0,0.00
2013-2-3,70.5,56.8,46.9,49.1,46.0,39.6,97,70,41,29.94,29.82,10,4,0,0.00
2013-2-4,70.5,55.3,41.9,59.4,45.5,38.9,97,73,39,29.98,29.85,6,2,0,0.00
2013-2-5,76.8,58.5,42.3,59.4,49.5,42.0,99,76,40,29.95,29.83,7,2,0,0.00
2013-2-6,77.9,66.5,53.8,65.8,60.4,53.2,99,82,59,29.97,29.88,5,2,0,0.00
2013-2-7,78.1,69.5,59.0,67.0,62.8,57.0,98,80,62,29.94,29.87,12,3,0,0.00
2013-2-8,80.4,67.8,58.3,64.2,60.8,54.9,98,80,43,30.05,29.88,10,3,0,0.00
2013-2-9,72.5,64.4,53.6,59.8,57.6,53.0,99,80,62,30.12,29.92,10,4,0,0.00
2013-2-10,76.8,69.0,64.4,60.9,58.2,55.6,77,69,58,29.99,29.88,10,4,0,0.00
2013-2-11,80.6,70.8,62.6,65.2,62.9,60.2,92,77,54,30.11,29.83,9,4,15,0.00
2013-2-12,86.2,72.6,60.4,68.6,64.8,59.0,98,78,47,30.11,29.93,7,3,10,0.00
2013-2-13,87.7,73.6,63.2,70.6,66.4,60.0,96,80,45,29.98,29.82,9,4,16,0.03
2013-2-14,72.7,63.2,59.9,66.1,61.4,59.0,98,94,75,30.04,29.92,7,2,12,0.80
2013-2-15,70.3,61.3,55.8,60.4,58.0,55.5,99,90,70,30.06,29.95,9,3,12,0.04
2013-2-16,69.6,58.8,46.0,57.5,46.3,26.2,98,67,32,30.08,29.88,16,5,21,0.00
2013-2-17,53.5,44.9,34.9,38.7,23.8,16.1,93,47,24,30.34,30.08,14,5,19,0.00
2013-2-18,67.6,52.8,33.3,50.7,40.7,26.5,96,65,43,30.34,30.22,8,2,16,0.00
2013-2-19,79.8,63.4,47.7,59.1,52.6,46.0,98,72,41,30.22,30.05,8,2,14,0.00
2013-2-20,72.5,63.5,54.5,61.5,57.9,52.4,98,83,66,30.13,30.02,8,3,13,0.00
2013-2-21,80.7,70.1,61.5,67.3,64.1,59.7,98,83,58,30.10,30.01,6,2,10,0.00
2013-2-22,80.8,71.8,61.0,71.7,67.7,60.7,99,87,73,30.10,30.01,10,4,14,0.00
2013-2-23,88.8,76.1,66.7,70.1,67.1,63.8,99,76,44,30.04,29.87,10,3,13,0.00
2013-2-24,85.5,71.6,66.9,71.1,67.7,66.3,98,89,58,29.97,29.88,8,3,14,0.63
2013-2-25,88.3,74.8,66.6,72.5,68.0,62.2,99,82,45,29.93,29.79,7,2,9,0.29
2013-2-26,85.5,74.9,64.6,71.9,69.0,61.9,92,82,60,29.87,29.75,12,5,20,0.00
2013-2-27,78.8,66.7,58.8,62.0,59.3,51.1,97,79,44,29.97,29.86,9,3,11,0.00
2013-2-28,76.8,62.2,49.6,52.2,48.3,42.9,94,64,32,30.00,29.86,10,4,14,0.00
2013-3-1,67.3,53.1,48.9,53.4,46.5,44.1,92,79,61,29.98,29.90,7,3,10,0.00
2013-3-3,56.6,47.6,37.8,34.4,32.8,30.9,81,58,41,30.15,29.96,14,6,21,0.00
2013-3-4,62.8,47.8,32.4,43.3,33.6,24.2,95,64,25,30.23,30.12,9,3,12,0.00
2013-3-5,81.1,59.6,41.2,58.8,48.3,39.9,99,71,31,30.18,30.01,7,2,13,0.00
2013-3-6,71.2,60.4,46.0,60.4,41.3,20.6,91,56,16,30.12,29.92,16,6,21,0.00
2013-3-7,66.9,52.7,42.4,49.1,41.8,33.1,96,67,47,30.19,30.09,9,4,13,0.00
2013-3-8,69.8,56.0,43.7,52.0,47.6,43.4,99,77,42,30.22,30.12,10,3,13,0.00
2013-3-9,73.9,60.0,46.8,54.7,50.9,46.3,98,75,47,30.22,30.12,9,3,12,0.00
2013-3-10,77.6,65.6,52.9,59.9,55.4,50.9,96,71,49,30.17,30.09,10,2,14,0.00
2013-3-11,78.1,67.1,54.7,62.9,58.1,53.3,99,75,49,30.12,29.93,9,4,16,0.00
2013-3-12,77.0,68.8,58.5,68.5,63.3,56.8,95,83,73,30.00,29.88,8,4,13,0.23
2013-3-13,72.9,60.0,50.2,56.9,48.3,37.3,97,70,29,30.15,29.99,12,5,15,0.00
2013-3-14,65.0,54.3,44.6,47.0,41.6,33.9,95,64,42,30.24,30.13,13,5,16,0.00
2013-3-15,68.2,54.2,40.6,46.7,42.7,38.7,96,69,36,30.28,30.15,8,3,13,0.00
2013-3-16,78.5,59.7,42.1,54.9,48.5,41.8,99,71,33,30.20,30.04,8,2,10,0.00
2013-3-17,78.9,62.9,46.4,59.4,53.0,45.0,98,73,43,30.15,30.02,8,2,10,0.00
2013-3-18,81.9,71.8,62.8,65.9,62.7,58.1,93,74,53,30.06,29.91,8,3,12,0.02
2013-3-19,83.7,70.3,62.1,66.8,63.9,61.4,98,82,55,30.01,29.89,7,2,9,0.00
2013-3-20,81.1,71.3,60.2,68.4,64.2,56.3,98,79,60,29.97,29.78,10,2,16,0.00
2013-3-21,71.6,59.4,48.7,56.4,45.3,30.6,96,65,24,29.96,29.83,12,3,13,0.00
2013-3-22,75.9,60.9,44.8,62.5,52.4,43.5,97,77,45,30.03,29.91,7,2,10,0.02
2013-3-23,88.8,75.5,66.0,72.9,67.4,61.7,97,78,51,29.99,29.74,8,3,17,0.00
2013-3-24,88.7,72.9,65.5,71.8,68.2,62.5,98,87,54,29.87,29.63,20,4,26,0.21
2013-3-25,74.1,66.6,54.3,69.0,48.9,25.3,99,62,18,30.00,29.71,14,5,21,0.22
2013-3-26,62.5,53.8,45.1,41.5,30.5,19.8,70,43,20,30.21,30.00,15,7,21,0.00
2013-3-27,63.7,50.7,39.9,43.5,36.5,30.2,92,61,32,30.28,30.18,10,4,12,0.00
2013-3-28,67.5,54.0,40.8,46.8,41.5,32.5,97,67,31,30.28,30.18,10,3,13,0.00
2013-3-29,71.2,57.7,42.4,50.3,45.3,40.4,99,69,33,30.32,30.20,9,2,12,0.00
2013-3-30,75.9,61.7,46.3,55.2,51.2,45.6,98,72,43,30.25,30.13,10,3,14,0.00
2013-3-31,83.3,67.9,55.0,64.6,57.3,50.4,94,71,39,30.17,29.99,8,3,13,0.00
2013-4-1,85.9,71.7,60.4,67.9,62.9,59.0,97,77,45,30.03,29.89,10,2,14,0.08
2013-4-2,79.3,69.2,60.4,64.7,62.1,57.3,99,80,47,30.08,29.98,13,4,14,0.01
2013-4-3,82.0,73.2,66.2,70.2,66.6,63.0,93,81,60,30.07,29.98,9,3,15,0.05
2013-4-4,75.2,70.8,66.4,70.2,67.3,62.6,95,88,83,30.06,29.87,10,4,16,0.19
2013-4-5,79.4,68.0,61.3,69.4,63.9,57.4,96,87,70,29.96,29.79,12,4,17,0.12
2013-4-6,76.0,66.0,54.9,63.5,58.2,52.7,93,77,57,30.12,29.96,10,6,17,0.00
2013-4-7,79.2,71.2,61.1,63.2,60.3,57.8,91,70,53,30.17,30.05,9,3,13,0.00
2013-4-8,81.1,70.1,58.3,67.0,62.5,57.5,99,79,52,30.15,30.06,8,2,11,0.00
2013-4-9,81.7,73.1,65.5,68.0,64.7,60.9,95,77,56,30.18,30.07,9,2,13,0.00
2013-4-10,82.3,73.7,63.1,71.4,67.6,61.0,97,82,65,30.12,30.00,9,3,13,0.00
2013-4-11,83.2,77.2,72.9,71.8,70.6,69.6,90,81,68,30.01,29.85,13,6,21,0.00
2013-4-12,90.9,80.2,74.3,74.1,71.0,67.3,89,75,51,29.92,29.81,9,4,19,0.00
2013-4-13,83.2,75.1,71.6,72.8,68.0,64.6,90,79,67,29.99,29.86,9,4,14,0.00
2013-4-14,84.8,75.9,66.9,75.0,71.0,64.8,97,85,71,29.97,29.83,16,5,21,3.98
2013-4-15,84.0,74.2,66.2,69.4,66.5,64.2,98,79,55,30.07,29.92,7,2,11,0.00
2013-4-16,76.5,73.5,69.8,70.0,68.2,67.2,94,84,75,30.15,30.04,9,3,12,0.00
2013-4-17,81.9,75.1,65.7,70.0,67.2,64.2,96,77,62,30.14,30.05,10,4,13,0.00
2013-4-18,84.8,77.5,67.5,73.2,69.6,65.7,95,77,63,30.07,29.98,8,3,13,0.00
2013-4-19,89.0,79.1,69.8,74.9,71.3,67.1,93,78,53,30.04,29.91,12,4,16,0.33
2013-4-20,73.8,69.9,65.7,72.3,66.0,61.1,97,88,75,30.13,29.96,8,4,14,0.02
2013-4-21,81.2,72.6,64.0,72.9,67.9,61.2,96,85,73,30.15,30.01,10,4,13,0.07
2013-4-22,80.0,72.2,68.4,70.0,67.9,63.8,98,87,65,30.08,29.99,10,4,20,0.07
2013-4-23,79.7,72.4,65.1,67.4,64.7,62.4,98,78,58,30.12,29.99,12,5,16,0.00
2013-4-24,81.5,72.1,60.6,66.1,62.9,59.7,97,75,56,30.15,30.07,7,2,12,0.00
2013-4-25,84.0,74.8,63.1,68.4,64.8,61.0,94,72,55,30.21,30.08,8,2,11,0.00
2013-4-26,83.0,74.5,64.2,69.9,66.1,62.9,97,76,56,30.24,30.15,9,3,12,0.00
2013-4-27,82.6,74.5,68.9,69.7,67.1,64.5,90,78,63,30.22,30.12,9,2,14,0.05
2013-4-28,83.1,75.6,70.9,68.9,65.1,62.6,81,70,54,30.14,30.02,9,3,12,0.00
2013-4-29,84.1,76.6,70.0,70.9,67.1,63.6,88,73,54,30.04,29.91,9,4,15,0.00
2013-4-30,83.8,75.0,69.4,73.5,69.4,66.9,94,84,67,30.00,29.93,7,2,11,0.00
2013-5-1,80.6,72.7,67.6,72.8,68.9,63.1,97,88,70,30.02,29.94,8,2,9,1.49
2013-5-2,79.1,72.0,66.0,71.5,67.8,63.1,96,87,76,29.97,29.83,10,3,15,1.02
2013-5-3,83.7,73.9,68.4,71.2,68.7,67.2,97,85,62,29.85,29.63,12,4,16,0.81
2013-5-4,90.5,75.7,68.5,70.9,68.0,65.4,90,78,52,29.78,29.67,6,2,11,0.00
2013-5-5,81.6,71.0,61.3,68.0,55.6,44.3,95,63,31,29.92,29.74,13,4,16,0.00
2013-5-6,85.2,70.1,58.5,63.1,56.9,52.6,91,66,37,29.99,29.89,9,3,12,0.00
2013-5-7,83.4,69.0,54.9,59.8,56.4,52.4,94,67,40,30.04,29.94,8,2,14,0.00
2013-5-8,87.6,72.1,58.1,65.0,60.4,56.9,96,70,38,30.12,30.01,9,2,11,0.00
2013-5-9,83.7,73.0,60.3,70.0,64.5,58.1,96,76,57,30.15,30.07,8,3,10,0.00
2013-5-10,87.0,76.8,64.9,74.3,69.5,63.6,97,79,56,30.13,30.01,8,3,13,0.00
2013-5-11,92.0,76.8,68.9,75.9,70.6,66.7,95,82,48,30.06,29.95,6,2,11,1.39
2013-5-12,93.9,77.4,68.4,75.3,71.1,67.5,98,83,49,30.03,29.91,8,2,14,0.07
2013-5-13,80.9,72.6,66.4,68.0,63.6,54.8,96,75,52,30.11,29.97,9,4,15,0.00
2013-5-14,80.3,72.3,58.1,61.0,57.1,51.3,92,60,42,30.19,30.10,9,4,12,0.00
2013-5-15,83.5,72.6,59.7,66.0,60.6,56.5,94,68,49,30.20,30.10,8,2,12,0.00
2013-5-16,85.4,74.0,61.0,66.4,63.1,59.3,96,71,48,30.13,30.03,7,2,10,0.00
2013-5-17,88.4,76.6,64.2,71.1,66.9,61.5,95,73,52,30.09,30.01,8,2,11,0.00
2013-5-18,92.2,78.7,68.0,74.7,71.0,66.5,96,78,55,30.12,30.03,8,3,13,0.00
2013-5-19,84.5,76.4,72.5,74.5,70.7,68.9,91,83,66,30.10,30.00,7,2,11,0.72
2013-5-20,86.0,77.0,70.7,74.4,71.0,68.7,96,83,64,30.08,29.99,7,2,10,0.00
2013-5-21,85.7,74.6,69.4,73.6,70.5,66.4,96,88,65,30.04,29.95,15,2,19,2.81
2013-5-22,87.5,76.1,68.2,75.4,71.1,67.3,98,85,65,29.98,29.90,7,1,12,0.17
2013-5-23,89.4,77.6,69.6,75.7,72.0,68.1,98,84,62,29.99,29.91,9,2,15,0.14
2013-5-24,90.6,78.9,67.5,75.0,70.9,66.6,98,78,47,30.08,29.95,7,2,11,0.00
2013-5-25,87.6,79.3,73.8,71.8,65.5,59.8,81,64,44,30.19,30.06,13,5,17,0.00
2013-5-26,84.3,76.3,67.6,65.8,62.3,58.4,78,63,50,30.21,30.14,10,3,11,0.00
2013-5-27,84.4,77.5,71.1,70.2,65.9,61.7,79,68,55,30.19,30.12,10,4,15,0.00
2013-5-28,85.5,78.8,73.8,74.6,71.0,67.7,90,77,65,30.15,30.09,10,4,17,0.04
2013-5-29,85.3,77.4,72.7,76.1,72.4,69.6,91,85,73,30.17,30.06,9,3,14,0.42
2013-5-30,85.7,78.9,74.3,75.7,72.1,69.1,92,80,65,30.14,30.05,9,4,16,0.28
2013-5-31,86.5,80.3,76.1,75.1,72.2,68.9,84,77,69,30.11,30.05,9,4,18,0.00
2013-6-1,87.3,79.9,75.0,77.1,74.1,71.4,94,83,70,30.07,29.98,9,3,13,0.48
2013-6-2,89.8,80.6,73.2,78.9,75.1,70.7,97,84,66,30.01,29.89,9,2,14,0.43
2013-6-3,89.9,79.4,72.7,78.4,74.5,71.8,97,86,60,30.00,29.88,7,2,12,0.31
2013-6-4,86.2,79.4,74.7,74.7,72.9,70.3,94,81,62,30.03,29.93,7,1,10,0.00
2013-6-5,87.6,79.3,74.1,77.2,73.8,71.0,94,84,65,30.02,29.91,6,2,12,0.00
2013-6-6,80.7,76.3,72.5,76.8,73.4,69.6,96,91,83,29.92,29.71,14,4,17,2.39
2013-6-7,93.5,81.0,73.2,76.8,73.8,71.0,96,80,58,29.95,29.77,7,3,10,0.00
2013-6-8,89.3,78.4,72.5,77.6,73.4,70.7,96,86,61,30.08,29.94,9,2,12,0.21
2013-6-9,88.7,79.7,71.6,77.8,74.1,70.7,98,84,64,30.12,30.03,9,2,13,0.00
2013-6-10,89.4,81.8,75.4,78.7,75.6,72.6,93,82,68,30.09,30.02,8,3,13,0.03
2013-6-11,90.9,80.3,73.6,78.5,75.0,67.5,96,85,64,30.08,30.01,7,2,15,0.07
2013-6-12,75.2,75.2,75.2,73.7,73.7,73.7,95,95,95,30.02,30.02,2,2,2,0.00
2013-6-13,75.2,75.2,75.2,73.7,73.7,73.7,95,95,95,30.02,30.02,2,2,2,0.00
2013-6-14,75.2,75.2,75.2,73.7,73.7,73.7,95,95,95,30.02,30.02,2,2,2,0.00
2013-6-15,75.2,75.2,75.2,73.7,73.7,73.7,95,95,95,30.02,30.02,2,2,2,0.00
2013-6-16,90.0,78.1,75.2,78.0,74.5,73.7,95,89,67,30.08,30.02,6,2,10,0.00
2013-6-17,95.0,84.2,77.0,78.1,75.9,72.7,92,77,51,30.08,29.98,7,3,10,0.00
2013-6-18,95.7,84.1,74.8,78.3,74.4,70.5,93,74,48,30.06,29.95,9,3,12,0.00
2013-6-19,92.6,81.6,71.6,78.5,72.8,67.5,93,75,60,30.03,29.95,8,2,12,0.04
2013-6-20,91.2,79.4,72.7,78.2,73.2,69.0,95,82,62,30.09,30.00,6,1,8,0.10
2013-6-21,92.1,77.9,70.7,77.7,72.3,69.2,97,84,63,30.12,30.03,8,1,10,0.03
2013-6-22,92.5,81.5,72.5,79.0,74.1,70.6,97,79,60,30.12,30.05,7,2,10,0.00
2013-6-23,91.5,81.1,73.9,78.4,74.5,71.5,96,81,63,30.14,30.06,8,1,10,0.01
2013-6-24,93.0,84.0,75.9,78.1,75.3,73.1,92,76,60,30.19,30.08,8,2,14,0.00
2013-6-25,92.5,83.3,74.7,77.1,74.7,71.6,93,76,57,30.15,30.04,8,2,12,0.00
2013-6-26,91.9,80.6,73.9,79.2,75.3,72.1,95,84,61,30.08,30.01,6,2,10,0.02
2013-6-27,91.8,81.2,72.0,78.1,74.2,71.1,98,81,58,30.05,29.93,7,2,12,0.26
2013-6-28,95.5,80.6,72.7,77.7,73.5,70.8,95,80,53,29.97,29.83,6,2,10,0.03
2013-6-29,92.5,80.5,74.1,78.0,74.0,70.2,95,82,60,29.89,29.80,8,2,15,0.40
2013-6-30,92.7,79.5,74.1,78.2,74.3,70.6,98,85,60,29.89,29.82,8,2,13,0.38
2013-7-1,89.7,77.6,32.0,99.9,74.2,27.6,100,89,13,30.04,0.00,7,2,15,0.25
2013-7-2,86.9,77.5,73.4,80.7,75.7,72.9,100,94,80,30.11,29.98,6,2,10,0.33
2013-7-3,89.1,80.7,74.3,80.1,76.6,72.7,100,88,75,30.14,30.06,13,3,14,0.00
2013-7-4,90.4,82.6,77.9,80.0,76.1,72.2,94,81,71,30.16,30.08,10,3,18,0.00
2013-7-5,90.5,82.6,76.1,79.5,76.6,73.5,96,83,70,30.16,30.07,8,3,17,0.00
2013-7-6,90.8,82.6,76.1,80.1,76.4,73.7,95,82,69,30.14,30.06,9,2,12,0.00
2013-7-7,91.1,83.0,75.0,80.5,77.0,73.0,98,83,68,30.13,30.05,9,2,12,0.00
2013-7-8,92.0,82.7,75.7,79.8,77.0,74.8,99,84,62,30.16,30.08,8,2,11,0.00
2013-7-9,88.8,81.8,73.9,78.6,76.1,73.3,100,83,70,30.16,30.07,9,3,12,0.00
2013-7-10,89.7,82.2,73.8,79.4,75.5,73.2,99,81,65,30.08,29.98,8,2,10,0.00
2013-7-11,92.9,80.6,72.5,79.9,75.4,68.6,98,85,59,30.04,29.92,8,2,10,0.47
2013-7-12,92.8,80.4,72.5,80.2,75.5,72.5,100,86,58,29.95,29.87,8,1,13,0.01
2013-7-13,89.3,77.5,71.8,80.0,74.7,71.8,100,92,72,30.06,29.91,6,1,10,0.09
2013-7-14,87.3,76.6,71.4,79.3,73.7,70.5,100,91,76,30.09,29.98,9,2,15,0.32
2013-7-15,86.4,77.8,71.2,78.3,73.9,70.3,100,88,74,30.12,30.02,9,2,11,0.00
2013-7-16,89.5,79.7,75.9,79.3,74.2,72.1,89,84,70,30.15,30.08,10,3,16,0.22
2013-7-17,88.8,80.9,75.4,79.4,74.6,71.1,89,81,72,30.14,30.08,8,3,12,0.00
2013-7-18,87.8,79.3,73.6,77.5,73.5,69.3,91,83,69,30.13,30.05,8,2,9,0.04
2013-7-19,88.2,79.0,72.5,79.3,73.5,69.6,92,84,72,30.13,30.03,9,2,12,0.08
2013-7-20,88.0,78.5,72.5,80.8,74.0,70.0,94,86,72,30.11,30.02,9,1,13,0.03
2013-7-21,94.8,78.4,72.1,80.3,73.4,68.3,93,85,62,30.12,30.04,7,1,10,0.35
2013-7-22,94.1,79.5,73.0,79.6,73.8,70.1,93,84,61,30.13,30.05,9,2,13,0.05
2013-7-23,92.7,80.3,72.9,78.9,73.9,70.8,94,82,61,30.09,29.94,10,2,17,0.01
2013-7-24,91.2,79.2,73.6,79.1,74.1,70.2,91,85,67,30.00,29.88,10,2,16,0.79
2013-7-25,85.8,78.4,72.5,78.1,74.1,69.7,92,87,76,29.97,29.87,10,2,18,0.38
2013-7-26,78.3,76.4,74.7,74.6,74.0,71.7,93,92,84,29.98,29.93,3,1,5,0.28
2013-7-27,76.8,76.8,76.8,74.6,74.6,74.6,93,93,93,29.98,29.98,1,1,2,0.00
2013-7-28,94.9,77.8,76.6,75.5,74.1,71.2,93,89,54,30.06,29.98,6,1,8,0.00
2013-7-29,91.1,81.9,73.9,80.7,75.3,71.7,93,81,65,30.15,30.02,6,1,10,0.00
2013-7-30,93.6,83.0,75.0,80.7,76.3,72.8,94,81,65,30.17,30.09,6,2,10,0.00
2013-7-31,91.9,83.9,76.1,81.6,76.6,73.0,93,79,67,30.13,30.01,8,2,12,0.00
2013-8-1,91.1,82.4,74.3,80.0,75.2,71.2,92,79,62,30.06,29.96,5,2,9,0.00
2013-8-2,89.6,81.8,74.5,78.1,74.8,71.6,93,80,66,30.02,29.93,10,3,15,0.00
2013-8-3,92.3,78.6,72.9,81.0,73.8,69.5,92,86,67,30.09,29.98,7,2,14,0.51
2013-8-4,81.3,79.2,73.6,77.1,75.7,71.1,94,89,87,30.08,30.02,3,1,4,0.00
2013-8-5,81.3,81.3,81.3,77.1,77.1,77.1,87,87,87,30.07,30.07,1,1,1,0.00
2013-8-6,81.3,81.3,81.3,77.1,77.1,77.1,87,87,87,30.07,30.07,1,1,1,0.00
2013-8-7,88.3,81.9,79.0,82.0,77.0,73.1,87,85,73,30.07,29.91,7,1,8,0.00
2013-8-8,91.7,84.5,77.0,81.1,77.0,65.8,89,79,47,30.04,29.94,8,2,11,0.19
2013-8-9,91.9,84.4,78.8,80.3,76.5,71.7,86,78,67,30.07,29.97,7,2,11,0.00
2013-8-10,92.6,83.8,74.7,80.5,75.9,71.4,93,78,58,30.13,30.05,7,2,12,0.00
2013-8-11,91.5,84.3,77.0,80.2,76.8,73.6,91,79,61,30.15,30.07,7,2,9,0.00
2013-8-12,91.2,82.5,73.9,79.1,74.8,71.1,93,78,58,30.12,30.02,8,2,10,0.00
2013-8-13,94.0,83.8,73.4,81.3,76.2,70.9,93,79,63,30.06,29.93,7,2,10,0.00
2013-8-14,94.6,83.0,76.1,81.4,75.8,72.8,90,79,63,30.01,29.90,8,2,10,0.00
2013-8-15,92.7,81.9,75.6,80.4,75.4,71.8,91,81,63,30.03,29.93,8,1,12,0.53
2013-8-16,93.1,83.2,76.5,80.0,76.1,73.3,92,80,61,30.05,29.96,7,2,13,0.00
2013-8-17,91.4,83.6,79.2,81.7,77.6,75.8,90,83,71,30.08,30.00,7,2,12,0.00
2013-8-18,91.0,83.2,77.9,81.1,77.2,73.7,89,82,72,30.11,30.01,9,2,13,0.04
2013-8-19,91.9,84.5,78.4,81.2,77.7,75.1,91,81,68,30.09,29.97,7,2,12,0.00
2013-8-20,91.8,84.7,77.7,80.4,77.1,72.7,89,79,66,30.10,29.99,7,2,11,0.00
2013-8-21,91.0,83.5,79.2,81.3,77.2,73.9,90,82,72,30.11,30.03,7,3,13,0.07
2013-8-22,91.3,83.0,76.8,81.0,76.9,74.2,92,82,70,30.08,29.98,9,2,13,0.05
2013-8-23,93.9,84.2,77.5,81.3,77.0,74.1,90,79,63,30.02,29.95,8,2,10,0.00
2013-8-24,91.9,81.9,75.6,80.2,75.3,72.4,92,81,62,30.10,29.99,13,2,17,0.00
2013-8-25,87.1,79.9,74.7,78.2,74.5,70.7,91,84,74,30.15,30.07,8,2,10,0.67
2013-8-26,88.8,80.8,74.5,78.4,74.9,71.9,93,83,67,30.13,30.01,9,2,14,0.12
2013-8-27,88.9,81.4,75.4,76.5,73.0,70.7,91,76,64,30.06,29.99,10,4,16,0.01
2013-8-28,89.1,80.4,71.4,75.9,72.5,68.8,92,78,64,30.05,29.97,9,2,12,0.00
2013-8-29,90.3,81.8,74.1,78.8,74.3,71.2,92,79,66,30.02,29.93,5,1,9,0.00
2013-8-30,93.1,81.7,73.6,79.2,74.2,71.1,93,79,60,29.98,29.89,6,1,9,0.00
2013-8-31,95.7,80.9,71.6,80.6,73.3,67.9,92,79,52,29.98,29.88,14,2,17,0.01
2013-9-1,92.3,79.1,71.6,79.8,73.0,69.0,94,82,61,30.00,29.91,7,2,13,0.09
2013-9-2,92.5,78.5,71.3,79.8,73.2,67.9,94,85,62,30.01,29.92,6,1,12,0.34
2013-9-3,91.8,78.0,72.1,80.6,73.3,69.8,94,86,64,30.01,29.92,12,1,13,1.73
2013-9-4,93.9,80.9,73.9,77.4,74.2,71.9,94,81,58,30.08,29.96,6,1,9,0.00
2013-9-5,91.5,82.9,76.3,78.6,75.3,72.3,92,79,63,30.08,30.00,7,2,11,0.00
2013-9-6,91.9,80.8,75.4,78.1,74.6,72.3,93,83,58,30.04,29.94,9,2,14,0.12
2013-9-7,88.5,80.2,73.6,76.0,72.7,70.7,94,79,59,30.00,29.91,9,3,11,0.00
2013-9-8,89.0,81.0,73.8,75.4,72.2,70.3,93,76,57,29.96,29.87,9,3,14,0.00
2013-9-9,88.7,81.5,73.6,74.1,72.1,69.4,92,74,55,30.02,29.91,8,3,13,0.00
2013-9-10,88.2,82.5,76.6,74.6,70.8,67.0,88,68,55,30.08,29.98,12,5,15,0.00
2013-9-11,88.6,82.7,78.1,74.4,72.6,70.7,86,72,59,30.07,29.99,10,4,14,0.00
2013-9-12,88.7,79.1,73.8,76.2,72.5,70.3,92,81,59,30.02,29.90,6,1,9,0.05
2013-9-13,90.9,80.4,72.7,74.9,72.0,69.9,94,77,53,29.91,29.79,6,1,8,0.00
2013-9-14,92.3,80.3,74.1,79.1,73.6,71.0,93,81,52,29.97,29.82,6,1,8,0.02
2013-9-15,90.0,80.5,73.6,77.2,74.2,69.5,91,82,63,30.07,29.95,9,2,14,0.66
2013-9-16,88.7,79.4,72.7,75.5,72.1,70.1,93,79,59,30.07,29.98,8,2,13,0.00
2013-9-17,87.8,80.4,75.6,75.3,72.9,70.4,91,78,59,30.06,29.95,13,3,17,0.50
2013-9-18,85.6,80.2,76.6,76.0,72.9,70.1,89,79,70,30.02,29.94,10,4,14,0.35
2013-9-19,87.3,81.3,77.4,73.5,71.5,66.9,84,73,60,30.04,29.95,12,5,15,0.00
2013-9-20,86.3,80.2,72.3,70.7,67.9,65.6,85,67,54,30.02,29.91,9,3,15,0.00
2013-9-21,88.7,79.1,70.7,72.1,69.3,66.7,93,73,51,29.97,29.76,6,1,9,0.02
2013-9-22,92.7,79.8,73.0,75.3,71.2,68.2,91,77,49,29.85,29.74,12,2,16,0.01
2013-9-23,88.6,77.5,72.9,76.7,73.0,70.8,93,87,64,29.98,29.83,7,1,11,2.42
2013-9-24,88.5,78.4,73.8,76.5,73.7,70.7,94,86,63,29.95,29.83,5,1,7,0.08
2013-9-25,85.2,77.8,73.6,74.4,70.6,68.0,93,80,59,29.84,29.77,10,2,14,0.00
2013-9-26,90.9,80.3,74.3,77.2,72.3,66.3,92,78,46,29.84,29.74,12,4,15,0.00
2013-9-27,86.1,75.1,70.2,76.7,72.2,67.9,100,91,71,29.93,29.82,9,3,14,0.33
2013-9-28,85.0,77.1,70.7,78.3,73.2,69.5,100,88,72,29.99,29.89,14,4,14,0.12
2013-9-29,85.3,77.8,70.7,74.8,72.5,70.1,100,84,62,29.97,29.90,8,3,13,0.00
2013-9-30,86.5,77.6,69.1,76.8,72.8,69.1,100,86,64,30.01,29.90,8,2,10,0.00
2013-10-1,85.7,79.9,72.9,76.7,74.3,72.8,100,84,71,30.05,29.96,9,3,13,0.00
2013-10-2,85.4,79.6,72.7,75.1,73.4,71.3,100,82,68,30.06,29.99,8,3,13,0.00
2013-10-3,87.8,78.5,69.8,77.4,73.1,69.8,100,84,67,30.07,29.97,9,2,12,0.00
2013-10-4,87.4,78.4,71.1,75.0,72.1,70.5,99,82,63,30.08,29.99,7,1,9,0.00
2013-10-5,87.3,81.6,73.4,76.5,74.2,62.7,95,79,66,30.03,29.95,9,4,12,0.00
2013-10-6,89.0,80.1,72.9,77.1,74.1,71.1,98,83,66,29.98,29.87,7,1,10,0.00
2013-10-7,88.2,78.7,74.1,79.7,73.8,71.9,96,86,64,29.88,29.77,6,2,9,0.04
2013-10-8,90.7,78.9,73.2,77.5,73.7,70.8,98,86,54,29.92,29.78,9,3,13,0.02
2013-10-9,84.3,76.3,70.7,74.4,72.0,68.1,99,87,70,30.01,29.88,10,5,15,0.05
2013-10-10,83.5,74.2,66.7,71.9,68.0,64.9,98,82,65,30.04,29.96,8,4,13,0.00
2013-10-11,83.9,72.8,62.4,69.5,65.0,61.5,99,79,53,30.03,29.93,7,2,10,0.00
2013-10-12,86.8,75.2,65.5,70.5,66.9,63.1,99,78,51,30.03,29.95,8,2,12,0.00
2013-10-13,84.3,74.2,64.4,68.7,65.9,61.6,98,78,52,30.07,29.98,8,2,11,0.00
2013-10-14,83.6,75.4,68.2,72.5,69.3,66.8,98,83,60,30.03,29.93,12,4,15,0.00
2013-10-15,83.1,73.7,68.0,73.2,70.2,67.7,100,90,66,29.99,29.88,7,3,9,0.00
2013-10-16,85.3,75.1,67.6,74.2,70.8,67.6,100,88,58,29.98,29.90,8,2,10,0.00
2013-10-17,87.3,76.1,67.8,74.3,70.9,67.8,100,85,58,29.99,29.90,7,2,9,0.00
2013-10-18,88.7,77.6,69.4,75.9,72.2,69.0,100,85,58,29.99,29.91,6,2,10,0.00
2013-10-19,88.2,79.2,70.2,77.8,73.8,69.3,99,84,66,29.96,29.87,7,2,10,0.00
2013-10-20,87.3,79.3,74.1,77.0,74.6,72.3,98,86,69,29.95,29.85,10,3,12,0.00
2013-10-21,91.9,80.5,72.1,78.7,75.4,71.5,99,85,59,29.99,29.89,6,1,8,0.00
2013-10-22,91.5,80.0,73.8,76.8,74.9,72.7,99,86,56,29.95,29.80,10,2,13,0.56
2013-10-23,81.9,74.8,68.4,73.9,68.4,57.0,100,82,53,29.98,29.79,9,3,14,0.00
2013-10-24,76.1,68.7,63.5,63.0,57.9,51.0,90,69,58,30.14,29.98,9,4,12,0.00
2013-10-25,77.9,69.1,60.3,64.2,60.4,57.7,95,76,55,30.21,30.12,9,4,15,0.00
2013-10-26,77.8,69.1,59.7,61.9,59.3,57.5,94,72,51,30.19,30.08,7,2,11,0.00
2013-10-27,77.0,66.2,56.8,62.4,59.4,56.2,98,81,56,30.13,30.06,8,2,13,0.00
2013-10-28,81.0,70.5,60.4,66.6,62.6,58.4,95,78,58,30.17,30.08,9,3,13,0.00
2013-10-29,82.6,73.4,63.0,68.2,65.5,61.8,97,78,57,30.21,30.13,12,3,14,0.00
2013-10-30,83.4,76.1,69.1,73.2,68.4,66.3,97,78,60,30.22,30.12,8,2,12,0.03
2013-10-31,85.6,77.9,72.3,71.6,69.0,65.9,93,75,57,30.13,30.00,7,2,11,0.00
2013-11-1,90.0,78.1,70.9,74.8,70.8,67.0,97,80,54,30.02,29.86,8,1,13,0.00
2013-11-2,85.0,71.1,65.8,72.9,66.8,60.6,100,87,56,29.96,29.80,15,3,19,0.00
2013-11-3,77.0,69.4,59.7,60.9,57.6,53.6,91,68,47,30.08,29.93,12,5,15,0.00
2013-11-4,79.4,74.8,69.8,66.7,61.4,54.4,86,63,53,30.14,30.06,16,8,22,0.01
2013-11-5,81.2,75.4,71.8,72.5,68.9,63.7,93,81,67,30.15,30.08,15,7,19,0.08
2013-11-6,84.8,75.9,72.0,71.4,68.3,64.9,94,78,58,30.11,30.03,10,3,16,0.00
2013-11-7,82.6,73.1,66.6,73.5,69.0,64.9,100,88,65,30.05,29.95,8,2,12,0.00
2013-11-8,79.1,71.9,65.3,70.7,66.3,63.7,99,83,72,30.11,29.98,13,5,18,0.00
2013-11-9,79.0,74.2,67.3,67.5,66.1,65.0,93,76,65,30.19,30.08,10,5,16,0.00
2013-11-10,80.4,72.1,65.1,71.3,66.6,62.0,99,84,56,30.17,30.09,8,2,12,0.00
2013-11-11,81.0,72.5,66.2,71.0,67.6,65.3,99,86,64,30.16,30.08,8,3,11,0.00
2013-11-12,79.8,71.5,65.5,71.8,67.6,63.9,100,88,70,30.11,30.00,7,2,9,0.00
2013-11-13,69.1,66.8,65.5,64.8,56.7,49.7,89,70,56,30.30,30.06,15,8,21,0.00
2013-11-14,75.6,70.0,66.2,61.0,56.8,51.4,75,63,56,30.32,30.17,13,6,17,0.00
2013-11-15,80.1,73.1,67.1,69.0,64.2,55.9,93,74,59,30.18,30.07,5,1,8,0.01
2013-11-16,83.3,75.0,69.4,71.4,68.9,66.4,96,82,59,30.13,30.03,6,2,9,0.06
2013-11-17,83.5,76.6,70.2,72.4,71.3,69.0,97,85,67,30.09,30.01,8,3,16,0.00
2013-11-18,88.5,75.0,68.5,73.8,70.8,68.2,99,88,56,30.03,29.92,9,1,10,0.21
2013-11-19,78.5,72.0,68.0,71.1,67.8,65.6,99,87,67,29.97,29.88,8,3,12,0.00
2013-11-20,78.0,72.7,68.4,72.1,70.4,66.6,99,93,81,30.11,29.95,8,3,14,1.12
2013-11-21,81.1,74.7,71.6,73.9,70.9,69.1,97,88,77,30.19,30.09,8,3,15,0.42
2013-11-22,81.7,75.8,71.4,72.2,68.8,66.2,90,79,65,30.21,30.11,10,3,13,0.01
2013-11-23,81.9,73.1,65.7,70.3,67.2,64.5,97,83,65,30.14,30.01,6,1,9,0.00
2013-11-24,75.2,68.5,65.8,67.3,62.9,55.5,99,83,66,30.23,30.02,15,6,18,0.00
2013-11-25,73.4,70.1,67.5,67.2,60.2,55.0,90,71,59,30.25,30.08,13,6,20,0.00
2013-11-26,83.0,75.9,69.4,74.7,71.0,67.0,97,85,69,30.08,29.77,12,5,17,0.07
2013-11-27,73.8,65.6,46.9,72.9,60.1,41.6,98,83,58,30.18,29.71,15,6,21,0.20
2013-11-28,66.7,53.6,40.5,57.7,47.8,36.6,93,81,67,30.31,30.17,10,6,15,0.00
2013-11-29,73.2,62.6,53.8,62.6,57.4,50.9,95,84,59,30.34,30.26,10,5,16,0.00
2013-11-30,76.6,67.2,62.2,68.1,63.6,60.9,99,89,67,30.28,30.16,12,4,16,0.34
2013-12-1,70.0,65.8,62.4,68.5,65.0,61.8,100,97,93,30.16,29.97,7,2,9,0.28
2013-12-2,72.3,64.5,57.6,64.6,61.8,57.0,100,92,68,29.97,29.82,7,3,9,0.05
2013-12-3,77.9,66.4,56.7,64.4,61.2,56.7,100,85,54,30.00,29.89,6,1,7,0.00
2013-12-4,83.8,70.3,59.5,70.5,65.2,58.9,99,86,53,30.09,29.98,3,0,7,0.00
2013-12-5,82.0,71.5,61.0,71.1,67.0,60.7,99,87,67,30.19,30.09,6,1,9,0.00
2013-12-6,80.9,73.1,66.4,74.4,69.4,65.5,99,89,68,30.20,30.11,8,1,11,0.19
2013-12-7,82.3,72.1,62.6,71.4,68.1,62.3,99,88,67,30.25,30.16,5,1,6,0.00
2013-12-8,81.5,73.0,66.2,72.1,68.5,65.9,99,87,67,30.24,30.13,8,2,12,0.00
2013-12-9,82.6,73.5,65.8,73.6,68.3,64.8,100,85,65,30.20,30.10,7,2,12,0.00
2013-12-10,85.1,73.5,63.0,72.1,66.3,61.1,99,80,52,30.18,30.08,6,2,11,0.00
2013-12-11,81.6,71.7,62.8,72.1,67.5,61.0,97,87,71,30.24,30.15,6,3,10,0.00
2013-12-12,69.0,64.4,52.9,65.7,57.3,48.8,97,79,56,30.30,30.18,12,5,17,0.00
2013-12-13,74.3,65.3,51.4,62.4,56.2,49.1,95,73,55,30.26,30.14,10,3,15,0.00
2013-12-14,79.1,74.2,70.2,73.3,69.2,62.4,91,85,76,30.14,29.96,9,4,19,0.01
2013-12-15,73.9,69.5,61.9,72.6,66.0,58.5,98,89,75,30.11,29.91,9,3,13,0.47
2013-12-16,66.0,57.5,49.1,58.6,52.7,47.2,94,84,65,30.22,30.09,8,5,12,0.00
2013-12-17,71.6,59.4,49.6,59.3,54.3,47.4,98,85,61,30.23,30.14,8,3,11,0.00
2013-12-18,67.6,57.4,50.4,54.1,49.6,43.8,97,77,50,30.27,30.18,9,3,15,0.00
2013-12-19,75.4,60.3,47.1,61.5,54.3,46.0,98,83,57,30.27,30.18,7,1,10,0.00
2013-12-20,79.0,66.9,53.1,68.9,60.9,52.8,99,83,56,30.22,30.12,9,2,13,0.00
2013-12-21,81.1,73.3,64.4,73.8,70.5,64.1,99,91,76,30.16,30.06,9,3,18,0.00
2013-12-22,85.0,75.4,69.1,73.9,71.4,68.8,100,88,63,30.16,30.09,7,3,12,0.00
2013-12-23,86.2,75.7,65.7,74.6,70.1,65.4,99,84,55,30.18,30.09,8,2,12,0.00
2013-12-24,72.0,64.6,58.8,69.2,59.0,45.0,98,83,49,30.23,30.10,10,4,17,0.00
2013-12-25,73.6,65.9,51.8,60.0,56.1,49.5,93,72,56,30.24,30.16,9,4,14,0.00
2013-12-26,76.5,66.0,57.0,65.3,61.4,55.9,98,86,65,30.21,30.10,7,4,12,0.00
2013-12-27,76.5,69.7,65.5,69.0,66.6,63.4,97,90,76,30.24,30.15,7,3,12,0.00
2013-12-28,78.3,72.5,68.0,72.3,69.5,67.3,99,91,80,30.21,30.03,8,3,13,0.16
2013-12-29,77.3,73.7,69.1,75.4,71.9,68.2,98,94,89,30.05,29.88,8,3,13,1.16
2013-12-30,69.1,63.8,57.6,68.3,61.3,55.5,99,92,83,30.20,29.98,7,2,11,0.00
2013-12-31,69.6,64.1,59.5,60.5,57.0,55.1,92,78,64,30.30,30.16,9,3,13,0.00
2014-1-1,70.7,66.6,64.4,67.9,65.0,60.5,100,95,82,30.24,30.05,6,2,9,0.16
2014-1-2,84.7,72.2,66.0,72.9,68.1,66.0,100,89,61,30.05,29.81,8,3,19,0.48